23. Deutsch-Französischer Straßenlauf - Halbmarathon -

Einlaufnr Startnr Name Vorname JG Altersklasse Verein Platz AKL Zeit
1 1 Schu Stefan 1977 Männer SV Saar 05 Saarbrücken 1 1:11:34
2 8 Glasow Bernhard 1970 Altersklasse M30 SV Saar 05 Saarbrücken 1 1:12:53
3 114 Baltes Jochen 1977 Männer SC Friedrichsthal 2 1:14:37
4 108 Schütz Thomas 1970 Altersklasse M30 LC 72 Altenkessel 2 1:14:55
5 90 Reimer Gerald 1957 Altersklasse M45 LSG Saarbr.-Sulzbachtal 1 1:15:24
6 93 Trampert Uwe 1972 Altersklasse M30 LSG Saarbr.-Sulzbachtal 3 1:15:46
7 7 Gärtner Michael 1968 Altersklasse M35 SV Saar 05 Saarbrücken 1 1:16:39
8 25 Jakob Jörg 1965 Altersklasse M35 TV Auersmacher 2 1:16:51
9 12 Hohwieler Che 1971 Altersklasse M30 SV Saar 05 Saarbrücken 4 1:17:39
10 61 Grandke Hans 1954 Altersklasse M50 LTF Marpingen 1 1:17:40
11 120 Brocker Stefan 1978 Männer LC Asics Rehlingen 3 1:17:59
12 44 Iwanski Georg 1950 Altersklasse M50 LTF Köllertal 2 1:18:12
13 91 Schmidt Thomas 1960 Altersklasse M40 LSG Saarbr.-Sulzbachtal 1 1:18:22
14 4 Buschmann Dirk 1968 Altersklasse M35 SV Saar 05 Saarbrücken 3 1:18:31
15 455 Klinkner Olaf 1971 Altersklasse M30 Schröder Fleischwaren 5 1:18:37
16 488 Hoffeld Peter 1967 Altersklasse M35 TV Piesbach 4 1:18:45
17 513 Zewe Markus 1971 Altersklasse M30 Tri-Team SC Illingen 6 1:19:23
18 14 Imbrota Salvatore 1976 Männer SV Saar 05 Saarbrücken 4 1:20:15
19 41 Echternach Stephan 1963 Altersklasse M40 LTF Köllertal 2 1:20:30
20 9 Groß Joachim 1965 Altersklasse M35 SV Saar 05 Saarbrücken 5 1:20:39
21 132 Ziegler Matthias 1969 Altersklasse M35 TV Lebach 6 1:20:44
22 15 Jakobs Marion 1970 Altersklasse W30 SV Saar 05 Saarbrücken 1 1:21:06
23 104 Schallmo Daniel 1957 Altersklasse M45 Tri-Tronic-Team St.Wendel 2 1:21:07
24 55 Feld Christoph 1959 Altersklasse M45 TV Lebach 3 1:21:37
25 122 Henkes Michael 1957 Altersklasse M45 LC Asics Rehlingen 4 1:21:58
26 130 Schmidt Tanja 1969 Altersklasse W35 LC Saucony Saar 1 1:22:10
27 129 Hartmann Uwe 1959 Altersklasse M45 LC Saucony Saar 5 1:22:11
28 38 Berg Thomas 1956 Altersklasse M45 LTF Köllertal 6 1:22:28
29 407 Jacob Thomas 1963 Altersklasse M40 TV Rohrbach 3 1:22:55
30 62 Hooß Jörg 1964 Altersklasse M40 LTF Marpingen 4 1:23:06
31 214 Jost Stephan 1970 Altersklasse M30 LTF Marpingen 7 1:23:18
32 354 Straub Wolfgang 1957 Altersklasse M45 SV Weingarten 7 1:23:23
33 481 Weyand Christian 1981 Männer TV Lebach 5 1:23:26
34 499 Klopp Peter 1957 Altersklasse M45 LC 72 Altenkessel 8 1:23:28
35 39 Blum Ernst-Joseph 1960 Altersklasse M40 LTF Köllertal 5 1:23:30
36 48 Servas Klaus 1954 Altersklasse M50 LTF Köllertal 3 1:23:36
37 69 Persch Christoph 1962 Altersklasse M40 LTF Mauschbach 6 1:23:46
38 116 Gebhardt Udo 1956 Altersklasse M45 TV Lebach 9 1:24:00
39 103 Stutz Klaus 1954 Altersklasse M50 LC Völklingen 4 1:24:06
40 30 Altmeier Frank 1973 Altersklasse M30 TV Elm 8 1:24:08
41 123 Klein Peter 1965 Altersklasse M35 LC Asics Rehlingen 7 1:24:12
42 607 Scherer Sascha 1972 Altersklasse M30 LC Völklingen 9 1:24:18
43 462 Resch Christian 1983 Männer Tri-Team SC Illingen 6 1:24:21
44 131 Weiler Markus 1969 Altersklasse M35 TRI Weiskirchen 8 1:24:25
45 43 Hellbrück Ferdinand 1957 Altersklasse M45 LTF Köllertal 10 1:25:06
46 558 De Giorgi Giovanni 1958 Altersklasse M45 LTF Marpingen 11 1:25:09
47 576 Gusenburger Andreas 1963 Altersklasse M40 oV 7 1:25:19
48 258 Jäckel Hermann 1957 Altersklasse M45 oV 12 1:25:23
49 21 Sinnewe Ursula 1957 Altersklasse W45 SV Saar 05 Saarbrücken 1 1:25:24
50 426 Hartmann Patrick 1956 Altersklasse M45 Bisttal Runners 13 1:25:41
51 115 Hau Thomas 1966 Altersklasse M35 SC Friedrichsthal 9 1:25:55
52 511 Schreiner Stefan 1967 Altersklasse M35 LTF Köllertal 10 1:26:06
53 32 Schreiner Martin 1955 Altersklasse M45 LSG 98 Köllertal 14 1:26:15
54 398 Koch Kurt 1955 Altersklasse M45 LTF Selbach 15 1:26:25
55 263 Dönneweg Markus 1962 Altersklasse M40 TuS Ormesheim 8 1:26:28
56 185 Bander Dieter 1963 Altersklasse M40 Tri Team Saar 05 9 1:26:32
57 225 Kohl Torsten 1967 Altersklasse M35 TV Rußhütte 11 1:26:36
58 45 Jakob Armin 1964 Altersklasse M40 LTF Köllertal 10 1:26:57
59 205 Balzer Uwe 1968 Altersklasse M35 Hobbyläufer Püttlingen 12 1:27:06
60 520 Jakobs Oliver 1962 Altersklasse M40 SV Saar 05 Saarbrücken 11 1:27:11
61 92 Rosch Jörg 1962 Altersklasse M40 LSG Saarbr.-Sulzbachtal 12 1:27:45
62 102 Haag Christian 1967 Altersklasse M35 LC Völklingen 13 1:27:48
63 40 Bodewig Joseph 1952 Altersklasse M50 LTF Köllertal 5 1:28:10
64 183 Steinbrecher Peter 1939 Altersklasse M65 LAG Saarbrücken 1 1:28:13
65 110 Bauer Eberhard 1958 Altersklasse M45 LC 72 Altenkessel 16 1:28:23
66 109 Pasquay Heribert 1961 Altersklasse M40 LC 72 Altenkessel 13 1:28:24
67 127 Schmitt Sybille 1985 weibl. Jugend A LC Asics Rehlingen 1 1:28:25
68 463 Backes Peter 1971 Altersklasse M30 oV 10 1:28:44
69 193 Wittling Klaus 1965 Altersklasse M35 oV 14 1:28:46
70 54 Strohe Anja 1973 Altersklasse W30 LTF Köllertal 2 1:28:47
71 155 Reichert Paul 1970 Altersklasse M30 LTF Köllertal 11 1:28:47
72 405 Kubulus Alois 1948 Altersklasse M55 LSG Quierschied 1 1:28:49
73 26 Barron Jean Marc 1960 Altersklasse M40 TV Auersmacher 14 1:28:51
74 480 Gourdoux Jacques 1966 Altersklasse M35 St. Wendeler Bikebären 15 1:29:00
75 2 Hooß Tanja 1967 Altersklasse W35 LTF Marpingen 2 1:29:06
76 574 Gros Gerhard 1951 Altersklasse M50 LG Bliestal 6 1:29:09
77 333 Groß Christian 1967 Altersklasse M35 Grojo┤s LTF Elversberg 16 1:29:28
78 126 Célette Gabriele 1956 Altersklasse W45 LC Asics Rehlingen 2 1:29:28
79 309 Scherer Alwin 1958 Altersklasse M45 TV Walpershofen 17 1:29:32
80 495 Hastenteufel Günter 1943 Altersklasse M60 FSV Jägersburg 1 1:29:36
81 527 Mezzatesta Cosmo 1960 Altersklasse M40 TC Altenkessel 15 1:29:38
82 536 Thomas Peter 1952 Altersklasse M50 LF Sotzweiler 7 1:29:42
83 121 Jenner Nicolas 1980 Männer LC Asics Rehlingen 7 1:29:46
84 509 Lang Rainer 1959 Altersklasse M45 TuS Glan-Münchweiler 18 1:29:48
85 590 Träff Jesper 1961 Altersklasse M40 oV 16 1:30:03
86 382 Ewen Volker 1980 Männer TCEC Mainz 8 1:30:09
87 226 Nickles Thomas 1969 Altersklasse M35 TV Rußhütte 17 1:30:15
88 593 Scherer Stefan 1965 Altersklasse M35 Rennschnecken Dudweiler e. V. 18 1:30:20
89 59 Oswald Armin 1958 Altersklasse M45 TV Losheim 19 1:30:22
90 156 Lippert Reinhard 1955 Altersklasse M45 LTF Köllertal 20 1:30:27
91 598 Löhfelm Hans-Joachim 1964 Altersklasse M40 LC Asics Rehlingen 17 1:30:40
92 284 Emser Martin 1957 Altersklasse M45 LG DJK Erbach/SG St.Ingbert 21 1:30:47
93 425 Jungmann Gerhard 1949 Altersklasse M55 Bisttal Runners 2 1:30:57
94 47 Kunze Rolf 1949 Altersklasse M55 LTF Köllertal 3 1:30:58
95 461 Jacob Thomas 1960 Altersklasse M40 VfA Neunkirchen 18 1:31:00
96 187 Schneider Jürgen 1964 Altersklasse M40 Tri Team Saar 05 19 1:31:00
97 119 Bastian Christian 1973 Altersklasse M30 TV Ludweiler 12 1:31:07
98 252 De Milleville Michel 1961 Altersklasse M40 Lauftreff Fitte Hütte 20 1:31:12
99 76 Blum Ralf 1958 Altersklasse M45 VfA Neunkirchen 22 1:31:14
100 453 Heckmann Martin 1958 Altersklasse M45 Lauftreff Winterberg Saarbrücken 23 1:31:17
101 389 Keiling Bertram 1951 Altersklasse M50 LTF Köllertal 8 1:31:20
102 327 Kirst Andreas 1968 Altersklasse M35 oV 19 1:31:22
103 504 Massing Thomas 1961 Altersklasse M40 TUS Wiebelskirchen 21 1:31:24
104 355 Klenk Ralf 1958 Altersklasse M45 oV 24 1:31:27
105 524 Detemple Klaus 1951 Altersklasse M50 LC Saucony Saar 9 1:31:31
106 550 Pallier Jens 1968 Altersklasse M35 oV 20 1:31:36
107 260 Kohler Armin 1961 Altersklasse M40 LL UstgBtl 262 22 1:31:39
108 578 Louia Andreas 1974 Altersklasse M30 RSC Überherrn 13 1:31:40
109 569 Baab Johannes 1965 Altersklasse M35 oV 21 1:31:54
110 335 Zeiger Uwe 1961 Altersklasse M40 Grojo┤s LTF Elversberg 23 1:31:55
111 57 Hoffmann Jürgen 1953 Altersklasse M50 TV Lebach 10 1:31:58
112 73 Höhne Adrian 1987 männl. Jugend A TV Nalbach 1 1:32:00
113 42 Günther Karl-Heinz 1954 Altersklasse M50 LTF Köllertal 11 1:32:05
114 296 Hippchen Rainer 1945 Altersklasse M55 LG Bliestal 4 1:32:10
115 315 Meyer Jens 1965 Altersklasse M35 GSV Spiesen 22 1:32:11
116 512 Laporte Frédéric 1959 Altersklasse M45 St. Wendeler Bikebären 25 1:32:13
117 567 Heck Torsten 1966 Altersklasse M35 oV 23 1:32:20
118 491 D'Erme Michael 1967 Altersklasse M35 oV 24 1:32:42
119 97 Herrmann Johannes 1941 Altersklasse M60 LSG Schmelz-Hüttersdorf 2 1:32:51
120 170 Boghossian Heike 1973 Altersklasse W30 LAG Saarbrücken 3 1:32:57
121 66 Klein Christine 1969 Altersklasse W35 LTF Marpingen 3 1:33:01
122 614 Rubel Klaus-Peter 1962 Altersklasse M40 VfA Neunkirchen 24 1:33:02
123 64 Wirbel Barbara 1961 Altersklasse W40 LTF Marpingen 1 1:33:03
124 63 Becker-Wirbel Volker 1962 Altersklasse M40 LTF Marpingen 25 1:33:04
125 568 Maurer Mik 1965 Altersklasse M35 oV 25 1:33:05
126 86 Holzknecht Karl-Heinz 1952 Altersklasse M50 LG Saar 70 12 1:33:11
127 70 Munkes Jürgen 1962 Altersklasse M40 LTF Mauschbach 26 1:33:15
128 485 Loth Karlheinz 1948 Altersklasse M55 oV 5 1:33:26
129 629 Geiger Wendelin 1952 Altersklasse M50 LTF Klarenthal 13 1:33:28
130 325 Hauck Nico 1971 Altersklasse M30 LG DJK Erbach/SG St.Ingbert 14 1:33:28
131 526 Goergen Werner 1950 Altersklasse M50 LSG Schmelz-Hüttersdorf 14 1:33:39
132 331 Scherer Patrick 1974 Altersklasse M30 oV 15 1:33:52
133 168 Keller Manfred 1942 Altersklasse M60 LTF Köllertal 3 1:33:55
134 474 Klein Bruno 1961 Altersklasse M40 LLG Wustweiler 27 1:33:57
135 635 Braun Volker 1968 Altersklasse M35 oV 26 1:34:00
136 329 Wilhelm Martin 1969 Altersklasse M35 VT Zweibrücken 27 1:34:01
137 245 Müller Werner 1956 Altersklasse M45 LG Reimsbach-Oppen 26 1:34:03
138 174 Theobald Martin 1955 Altersklasse M45 LAG Saarbrücken 27 1:34:05
139 23 Trenz Susanne 1969 Altersklasse W35 SV Saar 05 Saarbrücken 4 1:34:20
140 71 Akroud Patrick 1953 Altersklasse M50 TV Nalbach 15 1:34:24
141 555 Braun Thomas 1961 Altersklasse M40 SV Schmelz 28 1:34:51
142 180 Gebhardt Wolfgang 1948 Altersklasse M55 LAG Saarbrücken 6 1:34:52
143 334 Koulen Winfried 1961 Altersklasse M40 Tri-Team Saarlouis 29 1:34:52
144 427 Maurer Hans-Joachim 1957 Altersklasse M45 Bisttal Runners 28 1:35:06
145 336 Rimpel Karl-Heinz 1958 Altersklasse M45 Grojo┤s LTF Elversberg 29 1:35:08
146 530 Scherer Franz-Josef 1954 Altersklasse M50 Tri-Team SC Illingen 16 1:35:16
147 379 Lauer Marco 1975 Männer oV 9 1:35:21
148 65 Frank Daniela 1963 Altersklasse W40 LTF Marpingen 2 1:35:22
149 124 Reiter Thomas 1960 Altersklasse M40 LC Asics Rehlingen 30 1:35:23
150 547 Schuler Richard 1953 Altersklasse M50 TV Rehlingen 17 1:35:25
151 618 Hen Michael 1967 Altersklasse M35 Lauftreff Bliesmengen-Bolchen 28 1:35:29
152 606 Pino Tossi Eduardo 1970 Altersklasse M30 oV 16 1:35:35
153 150 Neurath Wolfgang 1943 Altersklasse M60 LTF Köllertal 4 1:35:39
154 437 Becker Martin 1979 Männer TV Brücken 10 1:35:43
155 22 Stras Marion 1979 Frauen SV Saar 05 Saarbrücken 1 1:35:46
156 10 Hertel Rolf 1953 Altersklasse M50 SV Saar 05 Saarbrücken 18 1:35:47
157 6 Engstler Monika 1956 Altersklasse W45 SV Saar 05 Saarbrücken 3 1:35:47
158 383 Wöhlke Jochen 1970 Altersklasse M30 TCEC Mainz 17 1:35:48
159 181 Nieder Gernot 1943 Altersklasse M60 LAG Saarbrücken 5 1:35:55
160 537 De Winkel Peter 1954 Altersklasse M50 TV Bitburg 19 1:35:58
161 362 Eiden Volker 1953 Altersklasse M50 LTF Selbach 20 1:36:05
162 188 Koebrich Michael 1959 Altersklasse M45 Tri Team Saar 05 30 1:36:07
163 293 Steinbach Thomas 1969 Altersklasse M35 oV 29 1:36:27
164 490 Graf Oliver 1968 Altersklasse M35 oV 30 1:36:28
165 375 Geyer Yves 1965 Altersklasse M35 Team Naturwaren Dr. Theiss 31 1:36:33
166 521 Raab Marion 1974 Altersklasse W30 VT Contwig 4 1:36:34
167 430 Angel Heike 1960 Altersklasse W40 Bisttal Runners 3 1:36:36
168 319 Paganini Stefan 1964 Altersklasse M40 oV 31 1:36:48
169 53 Raubuch Juliane 1962 Altersklasse W40 LTF Köllertal 4 1:36:49
170 546 Segeth Christian 1970 Altersklasse M30 Schluckspechte Beckingen 18 1:36:50
171 565 Faul Michael 1972 Altersklasse M30 TC Bous 19 1:36:52
172 222 Hüncher Axel 1960 Altersklasse M40 TV Rußhütte 32 1:37:02
173 544 Weber Heiko 1969 Altersklasse M35 LTF Mauschbach 32 1:37:04
174 468 Segeth Carlo 1966 Altersklasse M35 oV 33 1:37:07
175 517 Weyhreter Martin 1955 Altersklasse M45 oV 31 1:37:14
176 417 Meyer Christian 1968 Altersklasse M35 SV Schnappach 34 1:37:24
177 548 Biehl Armin 1973 Altersklasse M30 oV 20 1:37:25
178 625 Wagner Heimo 1957 Altersklasse M45 oV 32 1:37:25
179 60 Loehfelm Hans Werner 1952 Altersklasse M50 TV Losheim 21 1:37:28
180 596 Wallacher Dirk 1970 Altersklasse M30 Wellness-Company 21 1:37:35
181 78 Eisinger Hans 1941 Altersklasse M60 VfA Neunkirchen 6 1:37:37
182 51 Krupa Gabriele 1957 Altersklasse W45 LTF Köllertal 4 1:37:54
183 250 Bauer Dieter 1967 Altersklasse M35 TV Rehlingen 35 1:37:57
184 516 Heil Carsten 1976 Männer TV Brücken 11 1:37:59
185 220 Berndt Frank 1964 Altersklasse M40 TC Halberg Brebach 33 1:38:08
186 208 Mohm Frank 1966 Altersklasse M35 LTF Rimlingen 36 1:38:09
187 489 Brill Rainer 1955 Altersklasse M45 TV Eppelborn 33 1:38:16
188 18 Lottmann Heike 1969 Altersklasse W35 SV Saar 05 Saarbrücken 5 1:38:18
189 287 Schweitzer Horst 1956 Altersklasse M45 LAG Saarbrücken 34 1:38:28
190 617 Volz Harald 1963 Altersklasse M40 oV 34 1:38:36
191 613 Osterhage Joerg 1963 Altersklasse M40 oV 35 1:38:46
192 307 Ritter Stephan 1965 Altersklasse M35 Run4Fun Bübingen 37 1:38:47
193 164 Blaß Franz 1964 Altersklasse M40 LTF Köllertal 36 1:38:48
194 632 Sander Peter 1964 Altersklasse M40 oV 37 1:38:49
195 418 Müller Kurt 1944 Altersklasse M60 Bisttal Runners 7 1:38:59
196 486 Rapp Klaus 1942 Altersklasse M60 LG DJK Erbach/SG St.Ingbert 8 1:39:08
197 197 Jendretzke Kai 1968 Altersklasse M35 1. FC Kaiserslautern 38 1:39:11
198 469 Strotz Norbert 1955 Altersklasse M45 Karstadt AG 35 1:39:19
199 473 Schwarz Jürgen 1949 Altersklasse M55 Kneippverein St.Ingbert 7 1:39:29
200 316 Malter Peter 1979 Männer TV Ludweiler 12 1:39:31
201 585 Gillet Bernd 1954 Altersklasse M50 LTF Köllertal 22 1:39:35
202 571 Asaro Salvatore 1971 Altersklasse M30 oV 22 1:39:37
203 374 Koch Michael 1953 Altersklasse M50 Team Naturwaren Dr. Theiss 23 1:39:38
204 589 Barth Achim 1962 Altersklasse M40 LG Reimsbach-Oppen 38 1:39:45
205 324 Schuler Joachim 1965 Altersklasse M35 TV Losheim 39 1:39:52
206 118 Hölle Christof 1964 Altersklasse M40 TV Ludweiler 39 1:39:55
207 94 Becker Gerda 1959 Altersklasse W45 LSG Saarbr.-Sulzbachtal 5 1:40:00
208 213 Kiehm Thomas 1975 Männer oV 13 1:40:03
209 394 Benz Reinhard 1964 Altersklasse M40 oV 40 1:40:11
210 522 Stark Christian 1965 Altersklasse M35 RV-Schwalbe Eppelborn 40 1:40:16
211 376 Geiger Klaus 1963 Altersklasse M40 Team Naturwaren Dr. Theiss 41 1:40:19
212 493 Müller Peter 1954 Altersklasse M50 TV Beeden 24 1:40:21
213 353 Wieder Karin 1966 Altersklasse W35 1. FC Kaiserslautern 6 1:40:25
214 350 Junkes Peter 1958 Altersklasse M45 Intersport Klees HOM 36 1:40:26
215 603 Groß Marko 1969 Altersklasse M35 oV 41 1:40:32
216 560 Staub Volker 1962 Altersklasse M40 oV 42 1:40:46
217 270 Gratz Boris 1967 Altersklasse M35 oV 42 1:40:52
218 111 Wilhelm Frank 1962 Altersklasse M40 LG DJK Erbach/SG St.Ingbert 43 1:40:58
219 82 Schwandner Rüdiger 1964 Altersklasse M40 LG Saar 70 44 1:41:00
220 496 Hastenteufel Mark 1975 Männer FSV Jägersburg 14 1:41:06
221 101 Föllmer Hans-Joachim 1959 Altersklasse M45 LC Völklingen 37 1:41:07
222 439 Werning Thomas 1966 Altersklasse M35 oV 43 1:41:08
223 373 Seiler Norbert 1947 Altersklasse M55 Team Naturwaren Dr. Theiss 8 1:41:10
224 367 Heinen Thomas 1960 Altersklasse M40 Lauftreff Bliesmengen-Bolchen 45 1:41:15
225 154 Lesch Anton 1952 Altersklasse M50 LTF Köllertal 25 1:41:15
226 204 Balzert Michael 1967 Altersklasse M35 Hobbyläufer Püttlingen 44 1:41:17
227 482 Bettscheider Gerhard 1950 Altersklasse M50 SSV Bilsdorf 26 1:41:19
228 525 Cullmann Michael 1962 Altersklasse M40 oV 46 1:41:22
229 414 Waltner Paul Günther 1962 Altersklasse M40 TV Walpershofen 47 1:41:26
230 313 Mautes Claudia 1964 Altersklasse W40 oV 5 1:41:28
231 604 Paulus Helmut 1955 Altersklasse M45 oV 38 1:41:28
232 320 Berg Hans-Joachim 1959 Altersklasse M45 oV 39 1:41:31
233 360 Ludwig Laurentius 1957 Altersklasse M45 LTF Selbach 40 1:41:32
234 99 Breitbarth Ralf 1962 Altersklasse M40 LC Völklingen 48 1:41:32
235 581 Calcagno Gaetano 1945 Altersklasse M55 LSG Saarbr.-Sulzbachtal 9 1:41:38
236 348 Arimond Peter 1961 Altersklasse M40 Tri-Sport Saar-Hochwald 49 1:41:43
237 542 Backes Christian 1960 Altersklasse M40 TV Piesbach 50 1:41:44
238 80 Schöpfer Petra 1959 Altersklasse W45 LG Saar 70 6 1:41:45
239 290 Mathieu Marco 1965 Altersklasse M35 oV 45 1:41:52
240 351 Burgemeister Udo 1964 Altersklasse M40 TV Ottweiler 51 1:41:59
241 153 Ney Manfred 1964 Altersklasse M40 LTF Köllertal 52 1:42:03
242 295 Eigner Martin 1965 Altersklasse M35 oV 46 1:42:07
243 479 Wentz Jürgen 1963 Altersklasse M40 Grojo┤s LTF Elversberg 53 1:42:10
244 300 Hockertz Jörg 1969 Altersklasse M35 SV Steinberg 47 1:42:13
245 372 Reichert Eva 1975 Frauen oV 2 1:42:15
246 50 Gillet Martina 1955 Altersklasse W45 LTF Köllertal 7 1:42:19
247 397 Morgott Thomas 1972 Altersklasse M30 Run4Fun Bübingen 23 1:42:22
248 494 Gehlen Bernd 1959 Altersklasse M45 oV 41 1:42:29
249 620 Fousse Yuow 1957 Altersklasse M45 oV 42 1:42:30
250 559 Hartmann Manfred 1937 Altersklasse M65 LC Saucony Saar 2 1:42:31
251 448 Heintz Thilo 1972 Altersklasse M30 TSV Kleinglattbach / (BW) 24 1:42:32
252 477 Reuter Barbara 1963 Altersklasse W40 LAG Saarbrücken 6 1:42:36
253 476 Phul Heike 1961 Altersklasse W40 oV 7 1:42:39
254 175 Kittler Rolf 1958 Altersklasse M45 LAG Saarbrücken 43 1:42:42
255 471 Ludwig Norbert 1963 Altersklasse M40 ATV Dudweiler 54 1:42:43
256 169 Dietz Martin 1960 Altersklasse M40 LTF Köllertal 55 1:42:51
257 438 Feld Christian 1971 Altersklasse M30 oV 25 1:43:10
258 385 Schwed Bernd 1964 Altersklasse M40 SV Körprich 56 1:43:19
259 575 Schäfer Rolf 1963 Altersklasse M40 TV Rehlingen 57 1:43:20
260 67 Brill Rita 1955 Altersklasse W45 LTF Marpingen 8 1:43:23
261 384 Kirsch Leo 1959 Altersklasse M45 SV Körprich 44 1:43:24
262 223 Sehmer Siegfried 1950 Altersklasse M50 TV Rußhütte 27 1:43:29
263 178 Ahmadi Mohamed 1947 Altersklasse M55 LAG Saarbrücken 10 1:43:41
264 503 Backes Uwe 1964 Altersklasse M40 oV 58 1:43:41
265 49 Bindel Christine 1971 Altersklasse W30 LTF Köllertal 5 1:43:44
266 583 Gast Christoph 1970 Altersklasse M30 LTF Köllertal 26 1:43:44
267 611 Bosel Lothar 1957 Altersklasse M45 LTF Winterbach 45 1:43:46
268 75 Schneider Rolf 1957 Altersklasse M45 VfA Neunkirchen 46 1:43:51
269 246 Müller Sigrid 1959 Altersklasse W45 LG Reimsbach-Oppen 9 1:44:19
270 244 Kallmeyer Joachim 1951 Altersklasse M50 LG Reimsbach-Oppen 28 1:44:20
271 451 Lauer Detlef 1951 Altersklasse M50 LG Reimsbach-Oppen 29 1:44:20
272 554 Schmitt Walter 1955 Altersklasse M45 LF Sotzweiler 47 1:44:21
273 552 Noll Gerd 1940 Altersklasse M60 Rennschnecken Dudweiler e. V. 9 1:44:23
274 158 Lambert Ralf 1974 Altersklasse M30 LTF Köllertal 27 1:44:24
275 386 Paul Mathias 1959 Altersklasse M45 TV Piesbach 48 1:44:30
276 416 Kiefer Gerd 1963 Altersklasse M40 SV Schnappach 59 1:44:35
277 268 Quirin Christian 1964 Altersklasse M40 Bisttal Runners 60 1:44:37
278 413 Thiebold Rüdiger 1959 Altersklasse M45 TV Walpershofen 49 1:44:38
279 317 Krämer Jörg 1979 Männer oV 15 1:44:40
280 484 Geest Henrik 1961 Altersklasse M40 oV 61 1:44:41
281 349 Becker Rudi 1955 Altersklasse M45 Tri-Sport Saar-Hochwald 50 1:44:46
282 616 Schilt André 1954 Altersklasse M50 CAN Sarreguemines 30 1:44:55
283 466 Lehnen Rainer 1958 Altersklasse M45 TG Schiffweiler 51 1:44:58
284 286 Breme Mike 1973 Altersklasse M30 oV 28 1:45:00
285 588 Heitkamp Markus 1963 Altersklasse M40 TV Losheim 62 1:45:06
286 194 Wittling-Jacob Susanne 1965 Altersklasse W35 oV 7 1:45:15
287 218 Korn Bruno 1955 Altersklasse M45 oV 52 1:45:19
288 460 Becker Martin 1966 Altersklasse M35 oV 48 1:45:21
289 436 Dreyer Fritz 1954 Altersklasse M50 oV 31 1:45:23
290 409 Goebel Hartmut 1956 Altersklasse M45 Polizei Saarbrücken 53 1:45:29
291 529 Malz Markus 1970 Altersklasse M30 TUS Wiebelskirchen 29 1:45:37
292 623 Norek Wolfgang 1964 Altersklasse M40 oV 63 1:45:42
293 232 Ferone Peter 1958 Altersklasse M45 LTF Urexweiler 54 1:45:45
294 345 Kirsch Guido 1954 Altersklasse M50 TV Bitburg 32 1:45:46
295 447 Theobald Oliver 1974 Altersklasse M30 TV Lauterbach 30 1:45:51
296 191 Nicolay Marita 1966 Altersklasse W35 Trimmclub Weiskirchen 8 1:45:52
297 458 Schmidt Andreas 1967 Altersklasse M35 oV 49 1:45:53
298 266 Diehl Karsten 1956 Altersklasse M45 Bisttal Runners 55 1:45:54
299 323 Potulski Ralf 1966 Altersklasse M35 Tri-Team Saarlouis 50 1:46:05
300 587 Meiser Isabel 1985 weibl. Jugend A oV 2 1:46:07
301 579 Schneider Toni 1960 Altersklasse M40 TC Dörsdorf 64 1:46:08
302 633 Salaber Jacques 1962 Altersklasse M40 oV 65 1:46:12
303 440 Jost Werner 1941 Altersklasse M60 LTF Selbach 10 1:46:18
304 399 Klinkner Alois 1944 Altersklasse M60 LTF Marpingen 11 1:46:21
305 636 Jessen Claus 1962 Altersklasse M40 Lauffreunde Otzenhausen 66 1:46:21
306 396 Hafner Sebastian 1986 männl. Jugend A Run4Fun Bübingen 2 1:46:26
307 395 Schradt Peter 1954 Altersklasse M50 Run4Fun Bübingen 33 1:46:27
308 577 Meiser Franziska 1987 weibl. Jugend A oV 3 1:46:29
309 16 Koch Marita 1955 Altersklasse W45 SV Saar 05 Saarbrücken 10 1:46:41
310 507 Schmidt Thomas 1963 Altersklasse M40 Run4Fun Bübingen 67 1:46:41
311 262 Spang-Heidecker Jaqueline 1967 Altersklasse W35 oV 9 1:46:45
312 33 Backes Klaus 1961 Altersklasse M40 LSG 98 Köllertal 68 1:46:50
313 171 Ricke Hannelore 1947 Altersklasse W55 LAG Saarbrücken 1 1:46:53
314 420 Guldner Manfred 1957 Altersklasse M45 Bisttal Runners 56 1:46:55
315 612 Schwartz Eckart 1970 Altersklasse M30 FC Liverpool 31 1:47:18
316 600 Hassdenteufel Michael 1968 Altersklasse M35 Physio Team Kilian 51 1:47:21
317 584 Wendels Dirk 1965 Altersklasse M35 LLG Wustweiler 52 1:47:22
318 339 Klein Manfred 1959 Altersklasse M45 Tri-Team Saarlouis 57 1:47:26
319 465 Heit Paul 1954 Altersklasse M50 Lauftreff Bliesmengen-Bolchen 34 1:47:36
320 518 Khalaf Daniela 1961 Altersklasse W40 oV 8 1:47:47
321 566 Hassdenteufel-Totti Markus J. 1971 Altersklasse M30 TC Bous 32 1:48:04
322 432 Trautz Ursel 1953 Altersklasse W50 Bisttal Runners 1 1:48:05
323 514 Trusch Robert 1943 Altersklasse M60 oV 12 1:48:15
324 541 Bedford Oliver 1970 Altersklasse M30 TC Bous 33 1:48:16
325 190 Görgen Anette 1961 Altersklasse W40 Trimmclub Weiskirchen 9 1:48:21
326 227 Di Lorenzo Claudio 1960 Altersklasse M40 TV Rußhütte 69 1:48:27
327 608 Schmitt Norbert 1957 Altersklasse M45 TV Losheim 58 1:48:28
328 553 Wagner Reiner 1954 Altersklasse M50 oV 35 1:48:29
329 330 Rejek Frank 1975 Männer oV 16 1:48:34
330 228 Di Lorenzo Marion 1963 Altersklasse W40 TV Rußhütte 10 1:48:35
331 77 Müller Heino 1953 Altersklasse M50 VfA Neunkirchen 36 1:48:46
332 429 Beining Irmtraud 1960 Altersklasse W40 Bisttal Runners 11 1:48:47
333 388 Schank Wolfram 1958 Altersklasse M45 Lauffreunde Otzenhausen 59 1:48:55
334 357 Haupenthal Norbert 1954 Altersklasse M50 LTF Selbach 37 1:49:04
335 508 Lißmann Henriette 1962 Altersklasse W40 oV 12 1:49:27
336 421 Thiels Johann 1956 Altersklasse M45 Bisttal Runners 60 1:49:49
337 221 Moscherosch Jörg 1952 Altersklasse M50 TV Rußhütte 38 1:49:54
338 314 Freichel Gerhard 1958 Altersklasse M45 LTF Nalbach 61 1:50:03
339 68 Munkes Andrea 1966 Altersklasse W35 LTF Mauschbach 10 1:50:12
340 391 Wagner Klaus 1965 Altersklasse M35 oV 53 1:50:17
341 269 Petit Christine 1969 Altersklasse W35 Bisttal Runners 11 1:50:21
342 533 Hallauer - Conrad Ilona 1953 Altersklasse W50 SSV Erbach 2 1:50:22
343 570 Asaro Jaqueline 1987 weibl. Jugend A LC Asics Rehlingen 4 1:50:23
344 98 Herrmann Manfred 1955 Altersklasse M45 LSG Schmelz-Hüttersdorf 62 1:50:28
345 450 Segeth Gertrud 1963 Altersklasse W40 TV Dillingen 13 1:50:29
346 248 Hoffmann Alfred 1960 Altersklasse M40 TV Rehlingen 70 1:50:36
347 233 Wolter Dieter 1954 Altersklasse M50 LTF Urexweiler 39 1:50:40
348 390 Schach Petra 1966 Altersklasse W35 oV 12 1:50:47
349 377 Nardi Bruno 1965 Altersklasse M35 Team Naturwaren Dr. Theiss 54 1:50:59
350 13 Hotz Ingrid 1945 Altersklasse W55 SV Saar 05 Saarbrücken 2 1:51:03
351 523 Meiser Fanz-Josef 1956 Altersklasse M45 TV Wemmetsweiler 63 1:51:08
352 464 Hain Doris 1961 Altersklasse W40 oV 14 1:51:09
353 167 Reinert Herbert 1948 Altersklasse M55 LTF Köllertal 11 1:51:18
354 162 Leinenbach Helmut 1949 Altersklasse M55 LTF Köllertal 12 1:51:18
355 592 Risch Uwe 1959 Altersklasse M45 oV 64 1:51:27
356 562 Leutheuser Carola 1965 Altersklasse W35 LTF Klarenthal 13 1:51:39
357 368 Saccà Nicola 1963 Altersklasse M40 oV 71 1:51:51
358 81 Ritter Achim 1966 Altersklasse M35 LG Saar 70 55 1:51:55
359 610 Seifert Siegfried 1968 Altersklasse M35 Ilseplatz 08 56 1:52:03
360 446 Fritsch Dennis 1973 Altersklasse M30 oV 34 1:52:07
361 151 Linnenberger Martin 1949 Altersklasse M55 LTF Köllertal 13 1:52:10
362 497 Blum Hans Jürgen 1959 Altersklasse M45 LSG Quierschied 65 1:52:17
363 406 Vogtland Fritz 1940 Altersklasse M60 LSG Quierschied 13 1:52:18
364 609 Hagenau Bernd 1958 Altersklasse M45 SpoGeSa Turboschnecken 66 1:52:28
365 332 Scherer Joachim 1963 Altersklasse M40 Lauftreff Fitte Hütte 72 1:52:33
366 573 Paulisch Bernhard 1960 Altersklasse M40 LTF Winterbach 73 1:52:35
367 404 Venitz Ulrike 1963 Altersklasse W40 LSG Quierschied 15 1:52:37
368 79 Kipper Viktor 1952 Altersklasse M50 VfA Neunkirchen 40 1:52:48
369 586 Krusch Andreas 1959 Altersklasse M45 SF Hanweiler 67 1:53:14
370 543 Engel Jörg 1961 Altersklasse M40 oV 74 1:53:19
371 502 Germann Franz 1952 Altersklasse M50 LTF Mauschbach 41 1:53:28
372 563 Keuper Gerhard 1952 Altersklasse M50 LTF Klarenthal 42 1:53:34
373 561 Warken Hartmut 1944 Altersklasse M60 LTF Klarenthal 14 1:53:35
374 301 Rauch Günter 1958 Altersklasse M45 TV Losheim 68 1:53:37
375 303 Jost Herbert 1956 Altersklasse M45 oV 69 1:53:38
376 198 Bungert Alex 1949 Altersklasse M55 SV Schnappach 14 1:53:39
377 435 Lichtenstern Barbara 1967 Altersklasse W35 Bisttal Runners 14 1:53:41
378 415 Henrichs Michael 1964 Altersklasse M40 SV Schnappach 75 1:53:42
379 200 Gorges Albert 1952 Altersklasse M50 SV Schnappach 43 1:53:43
380 274 Pertsch Hans 1952 Altersklasse M50 oV 44 1:53:45
381 626 Roth Monika 1971 Altersklasse W30 oV 6 1:53:55
382 621 Bock Peter 1952 Altersklasse M50 DJK Sulzbach 45 1:53:56
383 35 Backes Heike 1965 Altersklasse W35 LSG 98 Köllertal 15 1:53:58
384 34 Trenz Werner 1952 Altersklasse M50 LSG 98 Köllertal 46 1:53:59
385 452 Naumann Andreas 1965 Altersklasse M35 TV Wiesbach 57 1:54:05
386 498 Ludwig Erwin 1963 Altersklasse M40 TV Wiesbach 76 1:54:06
387 203 Balzert Helmut 1970 Altersklasse M30 oV 35 1:54:23
388 321 Puetz Johannes 1955 Altersklasse M45 TV Bitburg 70 1:54:30
389 472 Lechner Thomas 1955 Altersklasse M45 oV 71 1:54:39
390 478 Wax Renate 1951 Altersklasse W50 LTF Köllertal 3 1:54:48
391 173 Schott Reiner 1954 Altersklasse M50 LAG Saarbrücken 47 1:54:52
392 343 Blacha Linus 1966 Altersklasse M35 oV 58 1:54:59
393 591 Seel Stefan 1976 Männer oV 17 1:55:00
394 338 Kalkbrenner Stefan 1963 Altersklasse M40 oV 77 1:55:04
395 597 Scherrmann Susanne 1966 Altersklasse W35 LTF Urexweiler 16 1:55:14
396 599 Kosica Dieter 1961 Altersklasse M40 oV 78 1:55:16
397 359 Röhlich Udo 1959 Altersklasse M45 LTF Selbach 72 1:55:23
398 229 Blug Hermann 1955 Altersklasse M45 oV 73 1:55:27
399 356 Haupenthal Gabriele 1959 Altersklasse W45 LTF Selbach 11 1:55:29
400 551 Sulewski Frank 1980 Männer oV 18 1:55:39
401 199 Jäkel Hans-Werner 1950 Altersklasse M50 LSG Saarbr.-Sulzbachtal 48 1:55:42
402 549 Schaeffer Jean Jacques 1964 Altersklasse M40 CAN Sarreguemines 79 1:55:49
403 412 Bohr Werner 1963 Altersklasse M40 TV Walpershofen 80 1:55:56
404 634 Becker Rudolf 1948 Altersklasse M55 LTF Marpingen 15 1:56:04
405 58 Schmidt Walter 1950 Altersklasse M50 TV Lebach 49 1:56:08
406 84 Polzin Thomas 1956 Altersklasse M45 LG Saar 70 74 1:56:13
407 83 Ferrenz Thilo 1962 Altersklasse M40 LG Saar 70 81 1:56:14
408 535 Riedel Franz 1966 Altersklasse M35 LC 72 Altenkessel 59 1:56:19
409 128 Vogel Elisabeth 1964 Altersklasse W40 SV Saar 05 Saarbrücken 16 1:56:32
410 531 Jaeck Gilbert 1947 Altersklasse M55 oV 16 1:56:37
411 11 Hertel Rungtong 1970 Altersklasse W30 SV Saar 05 Saarbrücken 7 1:56:38
412 275 Konrath Ralph-Uwe 1954 Altersklasse M50 oV 50 1:56:40
413 196 Brochart Vinzenz 1958 Altersklasse M45 TUS Rentrisch 75 1:56:53
414 306 Geib Petra 1964 Altersklasse W40 LTF Marpingen 17 1:56:54
415 557 Sehmer Adolf 1953 Altersklasse M50 SV Sitterswald 51 1:57:00
416 347 Melching Manuela 1970 Altersklasse W30 TV Bitburg 8 1:57:25
417 400 Schweitzer-Trappen Beate 1956 Altersklasse W45 LSG Quierschied 12 1:57:35
418 401 Schweitzer Martin 1958 Altersklasse M45 LSG Quierschied 76 1:57:36
419 456 Oberbillig Stefan 1969 Altersklasse M35 oV 60 1:57:40
420 282 Wunn Silvia 1956 Altersklasse W45 LTF Marpingen 13 1:57:44
421 582 Lenhardt Georg 1952 Altersklasse M50 LTF Winterbach 52 1:57:45
422 299 Huwer Michael 1965 Altersklasse M35 oV 61 1:57:49
423 29 Hahn-Mittermüller Gabriele 1953 Altersklasse W50 LG Berus 4 1:57:52
424 601 Scheid Wolf-Dieter 1961 Altersklasse M40 oV 82 1:57:59
425 211 Werth Polykap 1955 Altersklasse M45 oV 77 1:58:00
426 212 Thomas Gunther 1950 Altersklasse M50 TV Kirkel 53 1:58:04
427 580 Keffer Helmut E. W. 1950 Altersklasse M50 LT Fürstenhausen 54 1:58:05
428 483 Wolf Christian 1982 Männer oV 19 1:58:06
429 96 Müller Monika 1954 Altersklasse W50 LSG Schmelz-Hüttersdorf 5 1:58:07
430 152 Werny Barbara 1954 Altersklasse W50 LTF Köllertal 6 1:58:10
431 370 Hubrich Marcus 1974 Altersklasse M30 oV 36 1:58:28
432 337 Schütz Erwin 1947 Altersklasse M55 LTF Urexweiler 17 1:58:30
433 457 Oberbillig Christine 1973 Altersklasse W30 oV 9 1:58:37
434 19 Oreskovic Stefan 1962 Altersklasse M40 SV Saar 05 Saarbrücken 83 1:58:38
435 475 Brand Isabel 1974 Altersklasse W30 oV 10 1:58:41
436 459 Schwarz Barbara 1962 Altersklasse W40 Verein für Sozialpsychiatrie SLS 18 1:58:47
437 445 Merches Stefan 1965 Altersklasse M35 Verein für Sozialpsychiatrie SLS 62 1:58:48
438 378 Natale Silvio 1957 Altersklasse M45 Team Naturwaren Dr. Theiss 78 1:58:53
439 264 Gehring Franz-Josef 1954 Altersklasse M50 TV Niederwürzbach 55 1:59:16
440 297 Schwarz Werner 1952 Altersklasse M50 TV Niederwürzbach 56 1:59:16
441 506 Drumm-Merziger Vanessa 1971 Altersklasse W30 oV 11 1:59:32
442 433 Scherer Elke 1965 Altersklasse W35 Bisttal Runners 17 1:59:33
443 431 Strömich Doris 1956 Altersklasse W45 Bisttal Runners 14 1:59:34
444 215 Rascopp Alexander 1971 Altersklasse M30 oV 37 1:59:58
445 403 Schneider Klaus 1957 Altersklasse M45 LSG Quierschied 79 2:00:08
446 501 Engel Henning 1962 Altersklasse M40 oV 84 2:00:11
447 265 Linz Stefan 1960 Altersklasse M40 TV Niederwürzbach 85 2:00:32
448 402 Schneider Romy 1959 Altersklasse W45 LSG Quierschied 15 2:00:59
449 419 Weber Jörg 1968 Altersklasse M35 Bisttal Runners 63 2:01:03
450 467 Kilthau Karl Heinz 1953 Altersklasse M50 TC Sanddorf 57 2:01:14
451 594 Heuer Christian 1955 Altersklasse M45 oV 80 2:01:19
452 434 Wahl Bettina 1978 Frauen Bisttal Runners 3 2:01:27
453 182 Piltz Hartmut 1941 Altersklasse M60 LAG Saarbrücken 15 2:01:46
454 302 Rauch Elvira 1962 Altersklasse W40 TV Losheim 19 2:01:51
455 236 Noack Simone 1961 Altersklasse W40 LC Völklingen 20 2:02:26
456 238 Gebhard Werner 1958 Altersklasse M45 LC Völklingen 81 2:02:28
457 619 Schäfer Joachim 1953 Altersklasse M50 Schenck Pegasus 58 2:02:40
458 519 Bauer-Bauer Elke 1959 Altersklasse W45 LC 72 Altenkessel 16 2:03:24
459 240 Getrey Sibylle 1962 Altersklasse W40 LC Völklingen 21 2:03:30
460 239 Getrey Dieter 1963 Altersklasse M40 LC Völklingen 86 2:03:31
461 308 Abel Sebastian 1984 Männer oV 20 2:04:03
462 631 Strott Manuela 1969 Altersklasse W35 Lauffreunde Otzenhausen 18 2:04:13
463 628 Krämer Patrick 1967 Altersklasse M35 Lauffreunde Otzenhausen 64 2:04:14
464 366 Schramm Alfred 1943 Altersklasse M60 oV 16 2:04:14
465 605 Leimenkuehler Markus 1970 Altersklasse M30 oV 38 2:04:19
466 638 Dausend Andrea 1963 Altersklasse W40 oV 22 2:04:25
467 639 Baar Jörg 1963 Altersklasse M40 oV 87 2:04:26
468 210 Dispot Jean Paul 1948 Altersklasse M55 oV 18 2:05:08
469 294 Bartel Tina 1970 Altersklasse W30 oV 12 2:05:13
470 242 Paulus Werner 1956 Altersklasse M45 LSG Schmelz-Hüttersdorf 82 2:05:14
471 443 Backes David 1981 Männer oV 21 2:05:44
472 532 Neuhardt Elisabeth 1960 Altersklasse W40 oV 23 2:05:59
473 381 Simon Frank 1972 Altersklasse M30 SV Konken 39 2:06:10
474 630 Karpp Matthias 1963 Altersklasse M40 oV 88 2:07:04
475 251 Peifer Stefan 1966 Altersklasse M35 TV Rehlingen 65 2:07:07
476 442 Luka Bernadette 1959 Altersklasse W45 LC DJK Erbach 17 2:07:08
477 441 Luka Hubert 1959 Altersklasse M45 LC DJK Erbach 83 2:07:08
478 444 Biewer Klaus 1954 Altersklasse M50 St. Wendeler Bikebären 59 2:07:09
479 492 Celette Jean-Claude 1953 Altersklasse M50 oV 60 2:07:27
480 500 Leonhardt Herbert 1951 Altersklasse M50 Schachclub Dudweiler 61 2:07:37
481 487 Rapp Anna 1944 Altersklasse W60 Prießnitz Kneipp Verein Bexbach 1 2:07:46
482 27 Frische Heike 1969 Altersklasse W35 LG Berus 19 2:08:03
483 602 Ivana Denis 1972 Altersklasse M30 oV 40 2:08:10
484 510 Koch Inge 1957 Altersklasse W45 Wellness-Company 18 2:08:19
485 380 Dincher Thorsten 1974 Altersklasse M30 oV 41 2:09:27
486 470 Wobedo Hans Otto 1953 Altersklasse M50 LT Schafbrücke 62 2:09:31
487 627 Weiß Rüdiger 1961 Altersklasse M40 Lauffreunde Otzenhausen 89 2:10:27
488 371 Herrmann Bernhard 1970 Altersklasse M30 oV 42 2:11:04
489 369 Hubrich Michael 1972 Altersklasse M30 oV 43 2:11:13
490 37 Schleß Margit 1948 Altersklasse W55 LSG 98 Köllertal 3 2:11:28
491 159 Deutsch Gudrun 1951 Altersklasse W50 LTF Köllertal 7 2:11:30
492 207 Schulz Klaus 1960 Altersklasse M40 oV 90 2:13:09
493 572 Balke Doris 1942 Altersklasse W60 LSG Saarlouis 2 2:13:13
494 515 Miele Gabriele 1950 Altersklasse W50 oV 8 2:13:25
495 165 Keller Dieter 1934 Altersklasse M70 LTF Köllertal 1 2:13:37
496 454 Linse Thomas 1955 Altersklasse M45 TV Steinrausch 84 2:14:33
497 528 Meierhoff Frank 1959 Altersklasse M45 oV 85 2:16:04
498 622 Karcher Horst 1952 Altersklasse M50 TV Elm 63 2:16:14
499 449 Hary Harald 1948 Altersklasse M55 oV 19 2:17:14
500 595 Heng Markus 1972 Altersklasse M30 LTF Köllertal 44 2:18:37
501 505 Wittmann Inge 1935 Altersklasse W65 SV Karlsbrunn 1 2:18:45
502 365 Sander Christine 1967 Altersklasse W35 LTF Selbach 20 2:19:10
503 364 Welker Elfriede 1956 Altersklasse W45 LTF Selbach 19 2:19:10
504 161 Hirschmann Helga 1958 Altersklasse W45 LTF Köllertal 20 2:19:11
505 281 Wolf Hans-Udo 1943 Altersklasse M60 oV 17 2:19:19
506 163 Leinenbach Marita 1951 Altersklasse W50 LTF Köllertal 9 2:19:54
507 157 Hessedenz Sabine 1971 Altersklasse W30 LTF Köllertal 13 2:19:57
508 160 Kiefer Monika 1957 Altersklasse W45 LTF Köllertal 21 2:20:08
509 273 Cavelius Stefan 1966 Altersklasse M35 oV 66 2:32:48

Letzte Aktualisierung 21.03.04
Durch Petra Kern
E-Mail: p-kernžonlinehome.de